sensor_id;sensor_type;location;lat;lon;timestamp;temperature;humidity
16315;DHT22;8266;52.150;4.768;2023-07-13T00:01:45;22.10;99.90
16315;DHT22;8266;52.150;4.768;2023-07-13T00:04:17;22.10;99.90
16315;DHT22;8266;52.150;4.768;2023-07-13T00:06:44;22.00;99.90
16315;DHT22;8266;52.150;4.768;2023-07-13T00:09:12;22.00;99.90
16315;DHT22;8266;52.150;4.768;2023-07-13T00:11:39;22.00;99.90
16315;DHT22;8266;52.150;4.768;2023-07-13T00:14:07;22.00;99.90
16315;DHT22;8266;52.150;4.768;2023-07-13T00:16:36;21.90;99.90
16315;DHT22;8266;52.150;4.768;2023-07-13T00:19:03;21.90;99.90
16315;DHT22;8266;52.150;4.768;2023-07-13T00:21:32;21.90;99.90
16315;DHT22;8266;52.150;4.768;2023-07-13T00:23:59;21.90;99.90
16315;DHT22;8266;52.150;4.768;2023-07-13T00:26:27;21.90;99.90
16315;DHT22;8266;52.150;4.768;2023-07-13T00:28:54;21.90;99.90
16315;DHT22;8266;52.150;4.768;2023-07-13T00:31:21;21.90;99.90
16315;DHT22;8266;52.150;4.768;2023-07-13T00:33:48;21.90;99.90
16315;DHT22;8266;52.150;4.768;2023-07-13T00:36:15;21.90;99.90
16315;DHT22;8266;52.150;4.768;2023-07-13T00:38:44;21.90;99.90
16315;DHT22;8266;52.150;4.768;2023-07-13T00:41:11;21.90;99.90
16315;DHT22;8266;52.150;4.768;2023-07-13T00:43:38;21.90;99.90
16315;DHT22;8266;52.150;4.768;2023-07-13T00:46:13;21.90;99.90
16315;DHT22;8266;52.150;4.768;2023-07-13T00:48:41;21.90;99.90
16315;DHT22;8266;52.150;4.768;2023-07-13T00:51:10;21.90;99.90
16315;DHT22;8266;52.150;4.768;2023-07-13T00:53:38;21.90;99.90
16315;DHT22;8266;52.150;4.768;2023-07-13T00:56:07;21.90;99.90
16315;DHT22;8266;52.150;4.768;2023-07-13T00:58:35;21.90;99.90
16315;DHT22;8266;52.150;4.768;2023-07-13T01:01:02;21.90;99.90
16315;DHT22;8266;52.150;4.768;2023-07-13T01:03:29;21.90;99.90
16315;DHT22;8266;52.150;4.768;2023-07-13T01:05:56;21.90;99.90
16315;DHT22;8266;52.150;4.768;2023-07-13T01:08:23;21.90;99.90
16315;DHT22;8266;52.150;4.768;2023-07-13T01:10:54;22.00;99.90
16315;DHT22;8266;52.150;4.768;2023-07-13T01:13:23;21.90;99.90
16315;DHT22;8266;52.150;4.768;2023-07-13T01:15:52;21.90;99.90
16315;DHT22;8266;52.150;4.768;2023-07-13T01:18:22;21.90;99.90
16315;DHT22;8266;52.150;4.768;2023-07-13T01:20:55;21.90;99.90
16315;DHT22;8266;52.150;4.768;2023-07-13T01:23:23;21.90;99.90
16315;DHT22;8266;52.150;4.768;2023-07-13T01:25:51;21.90;99.90
16315;DHT22;8266;52.150;4.768;2023-07-13T01:28:21;21.90;99.90
16315;DHT22;8266;52.150;4.768;2023-07-13T01:30:53;21.80;99.90
16315;DHT22;8266;52.150;4.768;2023-07-13T01:33:20;21.80;99.90
16315;DHT22;8266;52.150;4.768;2023-07-13T01:35:47;21.80;99.90
16315;DHT22;8266;52.150;4.768;2023-07-13T01:38:19;21.80;99.90
16315;DHT22;8266;52.150;4.768;2023-07-13T01:40:46;21.70;99.90
16315;DHT22;8266;52.150;4.768;2023-07-13T01:43:14;21.80;99.90
16315;DHT22;8266;52.150;4.768;2023-07-13T01:45:41;21.70;99.90
16315;DHT22;8266;52.150;4.768;2023-07-13T01:48:09;21.70;99.90
16315;DHT22;8266;52.150;4.768;2023-07-13T01:50:36;21.70;99.90
16315;DHT22;8266;52.150;4.768;2023-07-13T01:53:04;21.60;99.90
16315;DHT22;8266;52.150;4.768;2023-07-13T01:55:33;21.60;99.90
16315;DHT22;8266;52.150;4.768;2023-07-13T01:58:00;21.60;99.90
16315;DHT22;8266;52.150;4.768;2023-07-13T02:00:27;21.50;99.90
16315;DHT22;8266;52.150;4.768;2023-07-13T02:02:54;21.50;99.90
16315;DHT22;8266;52.150;4.768;2023-07-13T02:05:21;21.40;99.90
16315;DHT22;8266;52.150;4.768;2023-07-13T02:07:48;21.40;99.90
16315;DHT22;8266;52.150;4.768;2023-07-13T02:10:15;21.30;99.90
16315;DHT22;8266;52.150;4.768;2023-07-13T02:12:44;21.30;99.90
16315;DHT22;8266;52.150;4.768;2023-07-13T02:15:11;21.20;99.90
16315;DHT22;8266;52.150;4.768;2023-07-13T02:17:38;21.20;99.90
16315;DHT22;8266;52.150;4.768;2023-07-13T02:20:06;21.10;99.90
16315;DHT22;8266;52.150;4.768;2023-07-13T02:22:33;21.10;99.90
16315;DHT22;8266;52.150;4.768;2023-07-13T02:25:01;21.00;99.90
16315;DHT22;8266;52.150;4.768;2023-07-13T02:27:28;21.00;99.90
16315;DHT22;8266;52.150;4.768;2023-07-13T02:29:56;21.00;99.90
16315;DHT22;8266;52.150;4.768;2023-07-13T02:32:23;20.90;99.90
16315;DHT22;8266;52.150;4.768;2023-07-13T02:34:51;20.90;99.90
16315;DHT22;8266;52.150;4.768;2023-07-13T02:37:19;20.90;99.90
16315;DHT22;8266;52.150;4.768;2023-07-13T02:39:47;20.90;99.90
16315;DHT22;8266;52.150;4.768;2023-07-13T02:42:14;20.80;99.90
16315;DHT22;8266;52.150;4.768;2023-07-13T02:44:41;20.80;99.90
16315;DHT22;8266;52.150;4.768;2023-07-13T02:47:10;20.80;99.90
16315;DHT22;8266;52.150;4.768;2023-07-13T02:49:37;20.70;99.90
16315;DHT22;8266;52.150;4.768;2023-07-13T02:52:04;20.70;99.90
16315;DHT22;8266;52.150;4.768;2023-07-13T02:54:32;20.70;99.90
16315;DHT22;8266;52.150;4.768;2023-07-13T02:56:59;20.60;99.90
16315;DHT22;8266;52.150;4.768;2023-07-13T02:59:26;20.60;99.90
16315;DHT22;8266;52.150;4.768;2023-07-13T03:01:53;20.60;99.90
16315;DHT22;8266;52.150;4.768;2023-07-13T03:04:21;20.60;99.90
16315;DHT22;8266;52.150;4.768;2023-07-13T03:06:48;20.60;99.90
16315;DHT22;8266;52.150;4.768;2023-07-13T03:09:15;20.50;99.90
16315;DHT22;8266;52.150;4.768;2023-07-13T03:11:42;20.50;99.90
16315;DHT22;8266;52.150;4.768;2023-07-13T03:14:09;20.50;99.90
16315;DHT22;8266;52.150;4.768;2023-07-13T03:16:36;20.40;99.90
16315;DHT22;8266;52.150;4.768;2023-07-13T03:19:03;20.40;99.90
16315;DHT22;8266;52.150;4.768;2023-07-13T03:21:31;20.40;99.90
16315;DHT22;8266;52.150;4.768;2023-07-13T03:23:58;20.40;99.90
16315;DHT22;8266;52.150;4.768;2023-07-13T03:26:25;20.30;99.90
16315;DHT22;8266;52.150;4.768;2023-07-13T03:28:52;20.30;99.90
16315;DHT22;8266;52.150;4.768;2023-07-13T03:31:21;20.30;99.90
16315;DHT22;8266;52.150;4.768;2023-07-13T03:33:49;20.20;99.90
16315;DHT22;8266;52.150;4.768;2023-07-13T03:36:18;20.20;99.90
16315;DHT22;8266;52.150;4.768;2023-07-13T03:38:48;20.20;99.90
16315;DHT22;8266;52.150;4.768;2023-07-13T03:41:15;20.20;99.90
16315;DHT22;8266;52.150;4.768;2023-07-13T03:43:43;20.20;99.90
16315;DHT22;8266;52.150;4.768;2023-07-13T03:46:10;20.20;99.90
16315;DHT22;8266;52.150;4.768;2023-07-13T03:48:37;20.20;99.90
16315;DHT22;8266;52.150;4.768;2023-07-13T03:51:05;20.20;99.90
16315;DHT22;8266;52.150;4.768;2023-07-13T03:53:32;20.10;99.90
16315;DHT22;8266;52.150;4.768;2023-07-13T03:56:01;20.20;99.90
16315;DHT22;8266;52.150;4.768;2023-07-13T03:58:31;20.20;99.90
16315;DHT22;8266;52.150;4.768;2023-07-13T04:00:59;20.10;99.90
16315;DHT22;8266;52.150;4.768;2023-07-13T04:03:26;20.10;99.90
16315;DHT22;8266;52.150;4.768;2023-07-13T04:05:54;20.10;99.90
16315;DHT22;8266;52.150;4.768;2023-07-13T04:08:25;20.10;99.90
16315;DHT22;8266;52.150;4.768;2023-07-13T04:10:52;20.10;99.90
16315;DHT22;8266;52.150;4.768;2023-07-13T04:13:21;20.10;99.90
16315;DHT22;8266;52.150;4.768;2023-07-13T04:15:48;20.10;99.90
16315;DHT22;8266;52.150;4.768;2023-07-13T04:18:15;20.10;99.90
16315;DHT22;8266;52.150;4.768;2023-07-13T04:20:42;20.10;99.90
16315;DHT22;8266;52.150;4.768;2023-07-13T04:23:09;20.10;99.90
16315;DHT22;8266;52.150;4.768;2023-07-13T04:25:36;20.10;99.90
16315;DHT22;8266;52.150;4.768;2023-07-13T04:28:04;20.20;99.90
16315;DHT22;8266;52.150;4.768;2023-07-13T04:30:32;20.20;99.90
16315;DHT22;8266;52.150;4.768;2023-07-13T04:32:59;20.10;99.90
16315;DHT22;8266;52.150;4.768;2023-07-13T04:35:26;20.10;99.90
16315;DHT22;8266;52.150;4.768;2023-07-13T04:37:54;20.20;99.90
16315;DHT22;8266;52.150;4.768;2023-07-13T04:40:20;20.20;99.90
16315;DHT22;8266;52.150;4.768;2023-07-13T04:42:47;20.20;99.90
16315;DHT22;8266;52.150;4.768;2023-07-13T04:45:15;20.20;99.90
16315;DHT22;8266;52.150;4.768;2023-07-13T04:47:44;20.30;99.90
16315;DHT22;8266;52.150;4.768;2023-07-13T04:50:13;20.30;99.90
16315;DHT22;8266;52.150;4.768;2023-07-13T04:52:45;20.30;99.90
16315;DHT22;8266;52.150;4.768;2023-07-13T04:55:12;20.40;99.90
16315;DHT22;8266;52.150;4.768;2023-07-13T04:57:39;20.40;99.90
16315;DHT22;8266;52.150;4.768;2023-07-13T05:00:07;20.40;99.90
16315;DHT22;8266;52.150;4.768;2023-07-13T05:02:37;20.50;99.90
16315;DHT22;8266;52.150;4.768;2023-07-13T05:05:06;20.50;99.90
16315;DHT22;8266;52.150;4.768;2023-07-13T05:07:33;20.60;99.90
16315;DHT22;8266;52.150;4.768;2023-07-13T05:10:00;20.60;99.90
16315;DHT22;8266;52.150;4.768;2023-07-13T05:12:28;20.60;99.90
16315;DHT22;8266;52.150;4.768;2023-07-13T05:14:55;20.70;99.90
16315;DHT22;8266;52.150;4.768;2023-07-13T05:17:22;20.70;99.90
16315;DHT22;8266;52.150;4.768;2023-07-13T05:19:49;20.80;99.90
16315;DHT22;8266;52.150;4.768;2023-07-13T05:22:18;20.80;99.90
16315;DHT22;8266;52.150;4.768;2023-07-13T05:24:45;20.80;99.90
16315;DHT22;8266;52.150;4.768;2023-07-13T05:27:12;20.90;99.90
16315;DHT22;8266;52.150;4.768;2023-07-13T05:29:39;20.90;99.90
16315;DHT22;8266;52.150;4.768;2023-07-13T05:32:06;20.90;99.90
16315;DHT22;8266;52.150;4.768;2023-07-13T05:34:33;21.00;99.90
16315;DHT22;8266;52.150;4.768;2023-07-13T05:37:00;21.00;99.90
16315;DHT22;8266;52.150;4.768;2023-07-13T05:39:28;21.10;99.90
16315;DHT22;8266;52.150;4.768;2023-07-13T05:41:55;21.10;99.90
16315;DHT22;8266;52.150;4.768;2023-07-13T05:44:22;21.10;99.90
16315;DHT22;8266;52.150;4.768;2023-07-13T05:46:49;21.20;99.90
16315;DHT22;8266;52.150;4.768;2023-07-13T05:49:16;21.20;99.90
16315;DHT22;8266;52.150;4.768;2023-07-13T05:51:43;21.30;99.90
16315;DHT22;8266;52.150;4.768;2023-07-13T05:54:10;21.30;99.90
16315;DHT22;8266;52.150;4.768;2023-07-13T05:56:38;21.40;99.90
16315;DHT22;8266;52.150;4.768;2023-07-13T05:59:05;21.40;99.90
16315;DHT22;8266;52.150;4.768;2023-07-13T06:01:32;21.50;99.90
16315;DHT22;8266;52.150;4.768;2023-07-13T06:03:59;21.50;99.90
16315;DHT22;8266;52.150;4.768;2023-07-13T06:06:26;21.60;99.90
16315;DHT22;8266;52.150;4.768;2023-07-13T06:08:53;21.60;99.90
16315;DHT22;8266;52.150;4.768;2023-07-13T06:11:22;21.70;99.90
16315;DHT22;8266;52.150;4.768;2023-07-13T06:13:51;21.80;99.90
16315;DHT22;8266;52.150;4.768;2023-07-13T06:16:18;21.90;99.90
16315;DHT22;8266;52.150;4.768;2023-07-13T06:18:45;22.00;99.90
16315;DHT22;8266;52.150;4.768;2023-07-13T06:21:15;22.10;99.90
16315;DHT22;8266;52.150;4.768;2023-07-13T06:23:42;22.20;99.90
16315;DHT22;8266;52.150;4.768;2023-07-13T06:26:11;22.20;99.90
16315;DHT22;8266;52.150;4.768;2023-07-13T06:28:38;22.30;99.90
16315;DHT22;8266;52.150;4.768;2023-07-13T06:31:08;22.30;99.90
16315;DHT22;8266;52.150;4.768;2023-07-13T06:33:36;22.30;99.90
16315;DHT22;8266;52.150;4.768;2023-07-13T06:36:04;22.30;99.90
16315;DHT22;8266;52.150;4.768;2023-07-13T06:38:33;22.30;99.90
16315;DHT22;8266;52.150;4.768;2023-07-13T06:41:00;22.30;99.90
16315;DHT22;8266;52.150;4.768;2023-07-13T06:43:27;22.40;99.90
16315;DHT22;8266;52.150;4.768;2023-07-13T06:45:56;22.40;99.90
16315;DHT22;8266;52.150;4.768;2023-07-13T06:48:24;22.40;99.90
16315;DHT22;8266;52.150;4.768;2023-07-13T06:50:51;22.40;99.90
16315;DHT22;8266;52.150;4.768;2023-07-13T06:53:19;22.40;99.90
16315;DHT22;8266;52.150;4.768;2023-07-13T06:55:47;22.50;99.90
16315;DHT22;8266;52.150;4.768;2023-07-13T06:58:15;22.50;99.90
16315;DHT22;8266;52.150;4.768;2023-07-13T07:00:42;22.50;99.90
16315;DHT22;8266;52.150;4.768;2023-07-13T07:03:09;22.50;99.90
16315;DHT22;8266;52.150;4.768;2023-07-13T07:05:37;22.60;99.90
16315;DHT22;8266;52.150;4.768;2023-07-13T07:08:04;22.60;99.90
16315;DHT22;8266;52.150;4.768;2023-07-13T07:10:32;22.60;99.90
16315;DHT22;8266;52.150;4.768;2023-07-13T07:13:00;22.50;99.90
16315;DHT22;8266;52.150;4.768;2023-07-13T07:15:26;22.50;99.90
16315;DHT22;8266;52.150;4.768;2023-07-13T07:17:53;22.50;99.90
16315;DHT22;8266;52.150;4.768;2023-07-13T07:20:20;22.60;99.90
16315;DHT22;8266;52.150;4.768;2023-07-13T07:22:49;22.70;99.90
16315;DHT22;8266;52.150;4.768;2023-07-13T07:25:16;22.70;99.90
16315;DHT22;8266;52.150;4.768;2023-07-13T07:27:43;22.80;99.90
16315;DHT22;8266;52.150;4.768;2023-07-13T07:30:11;22.90;99.90
16315;DHT22;8266;52.150;4.768;2023-07-13T07:32:38;22.90;99.90
16315;DHT22;8266;52.150;4.768;2023-07-13T07:35:06;22.90;99.90
16315;DHT22;8266;52.150;4.768;2023-07-13T07:37:33;22.90;99.90
16315;DHT22;8266;52.150;4.768;2023-07-13T07:40:01;22.90;99.90
16315;DHT22;8266;52.150;4.768;2023-07-13T07:42:28;23.00;99.90
16315;DHT22;8266;52.150;4.768;2023-07-13T07:44:55;23.20;99.90
16315;DHT22;8266;52.150;4.768;2023-07-13T07:47:22;23.40;99.90
16315;DHT22;8266;52.150;4.768;2023-07-13T07:49:49;23.50;99.90
16315;DHT22;8266;52.150;4.768;2023-07-13T07:52:16;23.60;99.90
16315;DHT22;8266;52.150;4.768;2023-07-13T07:54:44;23.70;99.90
16315;DHT22;8266;52.150;4.768;2023-07-13T07:57:12;23.70;99.90
16315;DHT22;8266;52.150;4.768;2023-07-13T07:59:39;23.70;99.90
16315;DHT22;8266;52.150;4.768;2023-07-13T08:02:08;23.70;99.90
16315;DHT22;8266;52.150;4.768;2023-07-13T08:04:35;23.70;99.90
16315;DHT22;8266;52.150;4.768;2023-07-13T08:07:02;23.70;99.90
16315;DHT22;8266;52.150;4.768;2023-07-13T08:09:29;23.70;99.90
16315;DHT22;8266;52.150;4.768;2023-07-13T08:11:56;23.70;99.90
16315;DHT22;8266;52.150;4.768;2023-07-13T08:14:24;23.80;99.90
16315;DHT22;8266;52.150;4.768;2023-07-13T08:16:51;24.00;99.90
16315;DHT22;8266;52.150;4.768;2023-07-13T08:19:19;24.20;99.90
16315;DHT22;8266;52.150;4.768;2023-07-13T08:21:46;24.40;99.90
16315;DHT22;8266;52.150;4.768;2023-07-13T08:24:15;24.60;99.90
16315;DHT22;8266;52.150;4.768;2023-07-13T08:26:44;24.80;99.90
16315;DHT22;8266;52.150;4.768;2023-07-13T08:29:12;25.00;99.90
16315;DHT22;8266;52.150;4.768;2023-07-13T08:31:40;25.00;99.90
16315;DHT22;8266;52.150;4.768;2023-07-13T08:34:07;25.10;99.90
16315;DHT22;8266;52.150;4.768;2023-07-13T08:36:34;25.00;99.90
16315;DHT22;8266;52.150;4.768;2023-07-13T08:39:02;25.00;99.90
16315;DHT22;8266;52.150;4.768;2023-07-13T08:41:29;25.00;99.90
16315;DHT22;8266;52.150;4.768;2023-07-13T08:43:58;24.90;99.90
16315;DHT22;8266;52.150;4.768;2023-07-13T08:46:28;24.80;99.90
16315;DHT22;8266;52.150;4.768;2023-07-13T08:48:58;24.80;99.90
16315;DHT22;8266;52.150;4.768;2023-07-13T08:51:37;24.80;99.90
16315;DHT22;8266;52.150;4.768;2023-07-13T08:54:12;24.80;99.90
16315;DHT22;8266;52.150;4.768;2023-07-13T08:56:44;24.80;99.90
16315;DHT22;8266;52.150;4.768;2023-07-13T08:59:16;24.90;99.90
16315;DHT22;8266;52.150;4.768;2023-07-13T09:02:14;25.00;99.90
16315;DHT22;8266;52.150;4.768;2023-07-13T09:04:48;25.20;99.90
16315;DHT22;8266;52.150;4.768;2023-07-13T09:07:29;25.30;99.90
16315;DHT22;8266;52.150;4.768;2023-07-13T09:10:08;25.50;99.90
16315;DHT22;8266;52.150;4.768;2023-07-13T09:12:48;25.70;99.90
16315;DHT22;8266;52.150;4.768;2023-07-13T09:15:27;25.80;99.90
16315;DHT22;8266;52.150;4.768;2023-07-13T09:17:59;26.00;99.90
16315;DHT22;8266;52.150;4.768;2023-07-13T09:20:32;26.20;99.90
16315;DHT22;8266;52.150;4.768;2023-07-13T09:23:09;26.30;99.90
16315;DHT22;8266;52.150;4.768;2023-07-13T09:25:37;26.40;99.90
16315;DHT22;8266;52.150;4.768;2023-07-13T09:28:11;26.40;99.90
16315;DHT22;8266;52.150;4.768;2023-07-13T09:30:46;26.50;99.90
16315;DHT22;8266;52.150;4.768;2023-07-13T09:33:17;26.50;99.90
16315;DHT22;8266;52.150;4.768;2023-07-13T09:35:46;26.60;99.90
16315;DHT22;8266;52.150;4.768;2023-07-13T09:38:15;26.70;99.90
16315;DHT22;8266;52.150;4.768;2023-07-13T09:40:56;26.80;99.90
16315;DHT22;8266;52.150;4.768;2023-07-13T09:43:26;26.90;99.90
16315;DHT22;8266;52.150;4.768;2023-07-13T09:45:54;27.00;99.90
16315;DHT22;8266;52.150;4.768;2023-07-13T09:48:22;27.10;99.90
16315;DHT22;8266;52.150;4.768;2023-07-13T09:50:54;27.20;99.90
16315;DHT22;8266;52.150;4.768;2023-07-13T09:53:22;27.30;99.90
16315;DHT22;8266;52.150;4.768;2023-07-13T09:55:50;27.40;99.90
16315;DHT22;8266;52.150;4.768;2023-07-13T09:58:20;27.50;99.90
16315;DHT22;8266;52.150;4.768;2023-07-13T10:00:55;27.70;99.90
16315;DHT22;8266;52.150;4.768;2023-07-13T10:03:25;27.70;99.90
16315;DHT22;8266;52.150;4.768;2023-07-13T10:05:54;27.80;99.90
16315;DHT22;8266;52.150;4.768;2023-07-13T10:08:28;27.80;99.90
16315;DHT22;8266;52.150;4.768;2023-07-13T10:11:00;27.80;99.90
16315;DHT22;8266;52.150;4.768;2023-07-13T10:13:36;27.70;99.90
16315;DHT22;8266;52.150;4.768;2023-07-13T10:16:04;27.60;99.90
16315;DHT22;8266;52.150;4.768;2023-07-13T10:18:39;27.50;99.90
16315;DHT22;8266;52.150;4.768;2023-07-13T10:21:14;27.30;99.90
16315;DHT22;8266;52.150;4.768;2023-07-13T10:23:42;27.10;99.90
16315;DHT22;8266;52.150;4.768;2023-07-13T10:26:13;27.00;99.90
16315;DHT22;8266;52.150;4.768;2023-07-13T10:28:42;26.90;99.90
16315;DHT22;8266;52.150;4.768;2023-07-13T10:31:14;27.00;99.90
16315;DHT22;8266;52.150;4.768;2023-07-13T10:33:42;27.00;99.90
16315;DHT22;8266;52.150;4.768;2023-07-13T10:36:19;27.20;99.90
16315;DHT22;8266;52.150;4.768;2023-07-13T10:38:49;27.40;99.90
16315;DHT22;8266;52.150;4.768;2023-07-13T10:41:20;27.50;99.90
16315;DHT22;8266;52.150;4.768;2023-07-13T10:43:50;27.70;99.90
16315;DHT22;8266;52.150;4.768;2023-07-13T10:46:20;27.70;99.90
16315;DHT22;8266;52.150;4.768;2023-07-13T10:48:52;27.70;99.90
16315;DHT22;8266;52.150;4.768;2023-07-13T10:51:21;27.70;99.90
16315;DHT22;8266;52.150;4.768;2023-07-13T10:54:15;27.70;99.90
16315;DHT22;8266;52.150;4.768;2023-07-13T10:56:44;27.70;99.90
16315;DHT22;8266;52.150;4.768;2023-07-13T10:59:14;27.70;99.90
16315;DHT22;8266;52.150;4.768;2023-07-13T11:01:51;27.60;99.90
16315;DHT22;8266;52.150;4.768;2023-07-13T11:04:20;27.50;99.90
16315;DHT22;8266;52.150;4.768;2023-07-13T11:06:52;27.40;99.90
16315;DHT22;8266;52.150;4.768;2023-07-13T11:09:35;27.40;99.90
16315;DHT22;8266;52.150;4.768;2023-07-13T11:12:08;27.30;99.90
16315;DHT22;8266;52.150;4.768;2023-07-13T11:14:43;27.30;99.90
16315;DHT22;8266;52.150;4.768;2023-07-13T11:17:35;27.30;99.90
16315;DHT22;8266;52.150;4.768;2023-07-13T11:20:21;27.30;99.90
16315;DHT22;8266;52.150;4.768;2023-07-13T11:22:52;27.30;99.90
16315;DHT22;8266;52.150;4.768;2023-07-13T11:25:28;27.30;99.90
16315;DHT22;8266;52.150;4.768;2023-07-13T11:28:20;27.30;99.90
16315;DHT22;8266;52.150;4.768;2023-07-13T11:30:49;27.40;99.90
16315;DHT22;8266;52.150;4.768;2023-07-13T11:33:49;27.50;99.90
16315;DHT22;8266;52.150;4.768;2023-07-13T11:36:17;27.60;99.90
16315;DHT22;8266;52.150;4.768;2023-07-13T11:38:55;27.70;99.90
16315;DHT22;8266;52.150;4.768;2023-07-13T11:41:27;27.70;99.90
16315;DHT22;8266;52.150;4.768;2023-07-13T11:44:05;27.80;99.90
16315;DHT22;8266;52.150;4.768;2023-07-13T11:46:32;28.00;99.90
16315;DHT22;8266;52.150;4.768;2023-07-13T11:48:59;28.10;99.90
16315;DHT22;8266;52.150;4.768;2023-07-13T11:51:28;28.20;99.90
16315;DHT22;8266;52.150;4.768;2023-07-13T11:54:01;28.30;99.90
16315;DHT22;8266;52.150;4.768;2023-07-13T11:56:29;28.30;99.90
16315;DHT22;8266;52.150;4.768;2023-07-13T11:59:04;28.30;99.90
16315;DHT22;8266;52.150;4.768;2023-07-13T12:01:32;28.30;99.40
16315;DHT22;8266;52.150;4.768;2023-07-13T12:04:00;28.30;99.50
16315;DHT22;8266;52.150;4.768;2023-07-13T12:06:30;28.20;99.90
16315;DHT22;8266;52.150;4.768;2023-07-13T12:09:00;28.10;99.90
16315;DHT22;8266;52.150;4.768;2023-07-13T12:11:29;28.20;99.90
16315;DHT22;8266;52.150;4.768;2023-07-13T12:13:56;28.20;99.90
16315;DHT22;8266;52.150;4.768;2023-07-13T12:16:28;28.20;99.90
16315;DHT22;8266;52.150;4.768;2023-07-13T12:18:56;28.10;99.30
16315;DHT22;8266;52.150;4.768;2023-07-13T12:21:31;28.10;99.10
16315;DHT22;8266;52.150;4.768;2023-07-13T12:24:00;28.10;98.70
16315;DHT22;8266;52.150;4.768;2023-07-13T12:26:28;28.10;99.20
16315;DHT22;8266;52.150;4.768;2023-07-13T12:28:59;28.10;99.30
16315;DHT22;8266;52.150;4.768;2023-07-13T12:31:36;28.20;99.30
16315;DHT22;8266;52.150;4.768;2023-07-13T12:34:08;28.30;99.90
16315;DHT22;8266;52.150;4.768;2023-07-13T12:36:37;28.40;99.60
16315;DHT22;8266;52.150;4.768;2023-07-13T12:39:14;28.40;99.80
16315;DHT22;8266;52.150;4.768;2023-07-13T12:41:42;28.50;98.40
16315;DHT22;8266;52.150;4.768;2023-07-13T12:44:12;28.60;99.60
16315;DHT22;8266;52.150;4.768;2023-07-13T12:46:52;28.60;98.50
16315;DHT22;8266;52.150;4.768;2023-07-13T12:49:24;28.60;98.70
16315;DHT22;8266;52.150;4.768;2023-07-13T12:51:56;28.60;99.20
16315;DHT22;8266;52.150;4.768;2023-07-13T12:54:27;28.60;98.70
16315;DHT22;8266;52.150;4.768;2023-07-13T12:56:55;28.60;98.00
16315;DHT22;8266;52.150;4.768;2023-07-13T12:59:27;28.70;97.90
16315;DHT22;8266;52.150;4.768;2023-07-13T13:01:55;28.70;98.40
16315;DHT22;8266;52.150;4.768;2023-07-13T13:04:23;28.70;97.90
16315;DHT22;8266;52.150;4.768;2023-07-13T13:07:01;28.70;97.70
16315;DHT22;8266;52.150;4.768;2023-07-13T13:09:29;28.70;97.40
16315;DHT22;8266;52.150;4.768;2023-07-13T13:11:56;28.70;98.20
16315;DHT22;8266;52.150;4.768;2023-07-13T13:14:23;28.70;97.70
16315;DHT22;8266;52.150;4.768;2023-07-13T13:16:51;28.60;97.20
16315;DHT22;8266;52.150;4.768;2023-07-13T13:19:21;28.60;97.00
16315;DHT22;8266;52.150;4.768;2023-07-13T13:21:49;28.60;97.10
16315;DHT22;8266;52.150;4.768;2023-07-13T13:24:20;28.50;96.70
16315;DHT22;8266;52.150;4.768;2023-07-13T13:26:50;28.50;95.70
16315;DHT22;8266;52.150;4.768;2023-07-13T13:29:20;28.50;95.90
16315;DHT22;8266;52.150;4.768;2023-07-13T13:31:47;28.40;96.20
16315;DHT22;8266;52.150;4.768;2023-07-13T13:34:16;28.40;95.70
16315;DHT22;8266;52.150;4.768;2023-07-13T13:36:45;28.30;96.10
16315;DHT22;8266;52.150;4.768;2023-07-13T13:39:20;28.20;96.40
16315;DHT22;8266;52.150;4.768;2023-07-13T13:41:50;28.20;96.50
16315;DHT22;8266;52.150;4.768;2023-07-13T13:44:19;28.10;96.10
16315;DHT22;8266;52.150;4.768;2023-07-13T13:46:48;28.10;97.00
16315;DHT22;8266;52.150;4.768;2023-07-13T13:49:25;28.10;97.10
16315;DHT22;8266;52.150;4.768;2023-07-13T13:51:52;28.10;98.10
16315;DHT22;8266;52.150;4.768;2023-07-13T13:54:21;28.00;98.50
16315;DHT22;8266;52.150;4.768;2023-07-13T13:56:51;28.10;98.20
16315;DHT22;8266;52.150;4.768;2023-07-13T13:59:19;28.20;98.40
16315;DHT22;8266;52.150;4.768;2023-07-13T14:01:47;28.20;97.50
16315;DHT22;8266;52.150;4.768;2023-07-13T14:04:18;28.20;97.50
16315;DHT22;8266;52.150;4.768;2023-07-13T14:06:45;28.30;97.70
16315;DHT22;8266;52.150;4.768;2023-07-13T14:09:14;28.30;96.90
16315;DHT22;8266;52.150;4.768;2023-07-13T14:11:41;28.30;96.80
16315;DHT22;8266;52.150;4.768;2023-07-13T14:14:14;28.30;96.30
16315;DHT22;8266;52.150;4.768;2023-07-13T14:16:43;28.30;95.00
16315;DHT22;8266;52.150;4.768;2023-07-13T14:19:13;28.30;95.10
16315;DHT22;8266;52.150;4.768;2023-07-13T14:21:41;28.30;95.30
16315;DHT22;8266;52.150;4.768;2023-07-13T14:24:08;28.30;94.80
16315;DHT22;8266;52.150;4.768;2023-07-13T14:26:37;28.40;94.80
16315;DHT22;8266;52.150;4.768;2023-07-13T14:29:10;28.40;94.80
16315;DHT22;8266;52.150;4.768;2023-07-13T14:31:40;28.40;95.30
16315;DHT22;8266;52.150;4.768;2023-07-13T14:34:08;28.50;96.00
16315;DHT22;8266;52.150;4.768;2023-07-13T14:36:38;28.50;95.00
16315;DHT22;8266;52.150;4.768;2023-07-13T14:39:12;28.50;95.70
16315;DHT22;8266;52.150;4.768;2023-07-13T14:41:39;28.50;95.50
16315;DHT22;8266;52.150;4.768;2023-07-13T14:44:11;28.50;95.20
16315;DHT22;8266;52.150;4.768;2023-07-13T14:46:41;28.60;95.30
16315;DHT22;8266;52.150;4.768;2023-07-13T14:49:19;28.60;94.30
16315;DHT22;8266;52.150;4.768;2023-07-13T14:51:48;28.60;94.30
16315;DHT22;8266;52.150;4.768;2023-07-13T14:54:15;28.50;94.80
16315;DHT22;8266;52.150;4.768;2023-07-13T14:56:42;28.50;94.50
16315;DHT22;8266;52.150;4.768;2023-07-13T14:59:09;28.40;94.60
16315;DHT22;8266;52.150;4.768;2023-07-13T15:01:40;28.40;94.70
16315;DHT22;8266;52.150;4.768;2023-07-13T15:04:08;28.30;95.30
16315;DHT22;8266;52.150;4.768;2023-07-13T15:06:56;28.30;95.40
16315;DHT22;8266;52.150;4.768;2023-07-13T15:09:24;28.30;95.70
16315;DHT22;8266;52.150;4.768;2023-07-13T15:11:52;28.20;95.50
16315;DHT22;8266;52.150;4.768;2023-07-13T15:14:19;28.20;95.10
16315;DHT22;8266;52.150;4.768;2023-07-13T15:16:49;28.10;95.00
16315;DHT22;8266;52.150;4.768;2023-07-13T15:19:19;28.00;95.70
16315;DHT22;8266;52.150;4.768;2023-07-13T15:21:47;28.00;96.50
16315;DHT22;8266;52.150;4.768;2023-07-13T15:24:15;28.00;95.70
16315;DHT22;8266;52.150;4.768;2023-07-13T15:26:42;28.00;95.80
16315;DHT22;8266;52.150;4.768;2023-07-13T15:29:10;28.10;96.40
16315;DHT22;8266;52.150;4.768;2023-07-13T15:31:38;28.10;96.20
16315;DHT22;8266;52.150;4.768;2023-07-13T15:34:12;28.20;96.30
16315;DHT22;8266;52.150;4.768;2023-07-13T15:36:40;28.20;96.10
16315;DHT22;8266;52.150;4.768;2023-07-13T15:39:08;28.20;95.80
16315;DHT22;8266;52.150;4.768;2023-07-13T15:41:40;28.30;96.00
16315;DHT22;8266;52.150;4.768;2023-07-13T15:44:23;28.30;96.50
16315;DHT22;8266;52.150;4.768;2023-07-13T15:46:50;28.40;96.70
16315;DHT22;8266;52.150;4.768;2023-07-13T15:49:19;28.40;95.40
16315;DHT22;8266;52.150;4.768;2023-07-13T15:51:46;28.50;95.70
16315;DHT22;8266;52.150;4.768;2023-07-13T15:54:16;28.40;95.40
16315;DHT22;8266;52.150;4.768;2023-07-13T15:56:49;28.40;94.60
16315;DHT22;8266;52.150;4.768;2023-07-13T15:59:18;28.40;94.30